sensor_id;sensor_type;location;lat;lon;timestamp;temperature;humidity
80779;SHT30;70170;47.856;10.956;2023-09-08T00:00:44;12.18;99.99
80779;SHT30;70170;47.856;10.956;2023-09-08T00:03:09;11.99;99.99
80779;SHT30;70170;47.856;10.956;2023-09-08T00:05:34;11.87;99.99
80779;SHT30;70170;47.856;10.956;2023-09-08T00:08:00;11.81;99.99
80779;SHT30;70170;47.856;10.956;2023-09-08T00:10:25;11.73;99.99
80779;SHT30;70170;47.856;10.956;2023-09-08T00:12:50;11.60;99.99
80779;SHT30;70170;47.856;10.956;2023-09-08T00:15:16;11.49;99.99
80779;SHT30;70170;47.856;10.956;2023-09-08T00:17:41;11.81;99.99
80779;SHT30;70170;47.856;10.956;2023-09-08T00:20:07;11.53;99.99
80779;SHT30;70170;47.856;10.956;2023-09-08T00:22:34;11.37;99.99
80779;SHT30;70170;47.856;10.956;2023-09-08T00:24:59;11.43;99.99
80779;SHT30;70170;47.856;10.956;2023-09-08T00:27:24;11.39;99.99
80779;SHT30;70170;47.856;10.956;2023-09-08T00:29:49;11.23;99.99
80779;SHT30;70170;47.856;10.956;2023-09-08T00:32:15;11.19;99.99
80779;SHT30;70170;47.856;10.956;2023-09-08T00:34:41;11.09;99.99
80779;SHT30;70170;47.856;10.956;2023-09-08T00:37:06;11.16;99.99
80779;SHT30;70170;47.856;10.956;2023-09-08T00:39:34;11.22;99.99
80779;SHT30;70170;47.856;10.956;2023-09-08T00:42:00;11.27;99.99
80779;SHT30;70170;47.856;10.956;2023-09-08T00:44:25;11.16;99.99
80779;SHT30;70170;47.856;10.956;2023-09-08T00:46:51;11.30;99.99
80779;SHT30;70170;47.856;10.956;2023-09-08T00:49:16;11.27;99.99
80779;SHT30;70170;47.856;10.956;2023-09-08T00:51:42;11.29;99.99
80779;SHT30;70170;47.856;10.956;2023-09-08T00:54:08;11.33;99.99
80779;SHT30;70170;47.856;10.956;2023-09-08T00:56:34;11.32;99.99
80779;SHT30;70170;47.856;10.956;2023-09-08T00:59:00;11.32;99.99
80779;SHT30;70170;47.856;10.956;2023-09-08T01:01:25;11.29;99.99
80779;SHT30;70170;47.856;10.956;2023-09-08T01:03:50;11.32;99.99
80779;SHT30;70170;47.856;10.956;2023-09-08T01:06:16;11.36;99.99
80779;SHT30;70170;47.856;10.956;2023-09-08T01:08:42;11.39;99.99
80779;SHT30;70170;47.856;10.956;2023-09-08T01:11:08;11.67;99.99
80779;SHT30;70170;47.856;10.956;2023-09-08T01:13:34;11.49;99.99
80779;SHT30;70170;47.856;10.956;2023-09-08T01:16:01;11.60;99.99
80779;SHT30;70170;47.856;10.956;2023-09-08T01:18:26;11.81;99.99
80779;SHT30;70170;47.856;10.956;2023-09-08T01:23:59;11.70;99.99
80779;SHT30;70170;47.856;10.956;2023-09-08T01:26:35;11.63;99.99
80779;SHT30;70170;47.856;10.956;2023-09-08T01:29:03;11.73;99.99
80779;SHT30;70170;47.856;10.956;2023-09-08T01:31:30;11.84;99.99
80779;SHT30;70170;47.856;10.956;2023-09-08T01:33:56;11.88;99.99
80779;SHT30;70170;47.856;10.956;2023-09-08T01:36:21;11.91;99.99
80779;SHT30;70170;47.856;10.956;2023-09-08T01:38:46;12.40;99.99
80779;SHT30;70170;47.856;10.956;2023-09-08T01:41:11;12.12;99.99
80779;SHT30;70170;47.856;10.956;2023-09-08T01:43:37;11.99;99.99
80779;SHT30;70170;47.856;10.956;2023-09-08T01:46:02;11.71;99.99
80779;SHT30;70170;47.856;10.956;2023-09-08T01:48:27;11.59;99.99
80779;SHT30;70170;47.856;10.956;2023-09-08T01:50:53;11.52;99.99
80779;SHT30;70170;47.856;10.956;2023-09-08T01:53:18;11.37;99.99
80779;SHT30;70170;47.856;10.956;2023-09-08T01:55:43;11.19;99.99
80779;SHT30;70170;47.856;10.956;2023-09-08T01:58:08;11.09;99.99
80779;SHT30;70170;47.856;10.956;2023-09-08T02:00:34;10.95;99.99
80779;SHT30;70170;47.856;10.956;2023-09-08T02:03:00;10.97;99.99
80779;SHT30;70170;47.856;10.956;2023-09-08T02:05:25;10.99;99.99
80779;SHT30;70170;47.856;10.956;2023-09-08T02:07:51;11.14;99.99
80779;SHT30;70170;47.856;10.956;2023-09-08T02:10:17;11.26;99.99
80779;SHT30;70170;47.856;10.956;2023-09-08T02:12:43;11.27;99.99
80779;SHT30;70170;47.856;10.956;2023-09-08T02:15:08;11.30;99.99
80779;SHT30;70170;47.856;10.956;2023-09-08T02:17:34;11.23;99.99
80779;SHT30;70170;47.856;10.956;2023-09-08T02:19:59;11.29;99.99
80779;SHT30;70170;47.856;10.956;2023-09-08T02:22:24;11.60;99.99
80779;SHT30;70170;47.856;10.956;2023-09-08T02:24:50;11.94;99.99
80779;SHT30;70170;47.856;10.956;2023-09-08T02:27:16;11.64;99.99
80779;SHT30;70170;47.856;10.956;2023-09-08T02:29:42;11.71;99.99
80779;SHT30;70170;47.856;10.956;2023-09-08T02:32:07;12.08;99.99
80779;SHT30;70170;47.856;10.956;2023-09-08T02:34:36;11.94;99.99
80779;SHT30;70170;47.856;10.956;2023-09-08T02:37:04;11.82;99.99
80779;SHT30;70170;47.856;10.956;2023-09-08T02:39:29;11.95;99.99
80779;SHT30;70170;47.856;10.956;2023-09-08T02:41:55;11.97;99.99
80779;SHT30;70170;47.856;10.956;2023-09-08T02:44:20;12.08;99.99
80779;SHT30;70170;47.856;10.956;2023-09-08T02:46:47;12.16;99.99
80779;SHT30;70170;47.856;10.956;2023-09-08T02:49:13;12.46;99.99
80779;SHT30;70170;47.856;10.956;2023-09-08T02:51:38;12.29;99.99
80779;SHT30;70170;47.856;10.956;2023-09-08T02:54:03;12.29;99.99
80779;SHT30;70170;47.856;10.956;2023-09-08T02:56:28;12.15;99.99
80779;SHT30;70170;47.856;10.956;2023-09-08T02:58:54;11.94;99.99
80779;SHT30;70170;47.856;10.956;2023-09-08T03:01:19;11.84;99.99
80779;SHT30;70170;47.856;10.956;2023-09-08T03:03:46;11.94;99.99
80779;SHT30;70170;47.856;10.956;2023-09-08T03:06:13;11.99;99.99
80779;SHT30;70170;47.856;10.956;2023-09-08T03:08:38;12.14;99.99
80779;SHT30;70170;47.856;10.956;2023-09-08T03:11:04;12.01;99.99
80779;SHT30;70170;47.856;10.956;2023-09-08T03:13:30;11.91;99.99
80779;SHT30;70170;47.856;10.956;2023-09-08T03:15:56;11.84;99.99
80779;SHT30;70170;47.856;10.956;2023-09-08T03:18:22;11.67;99.99
80779;SHT30;70170;47.856;10.956;2023-09-08T03:20:49;11.52;99.99
80779;SHT30;70170;47.856;10.956;2023-09-08T03:23:14;11.42;99.99
80779;SHT30;70170;47.856;10.956;2023-09-08T03:25:40;11.30;99.99
80779;SHT30;70170;47.856;10.956;2023-09-08T03:28:05;11.19;99.99
80779;SHT30;70170;47.856;10.956;2023-09-08T03:30:30;11.09;99.99
80779;SHT30;70170;47.856;10.956;2023-09-08T03:32:56;11.02;99.99
80779;SHT30;70170;47.856;10.956;2023-09-08T03:35:21;11.15;99.99
80779;SHT30;70170;47.856;10.956;2023-09-08T03:37:46;11.29;99.99
80779;SHT30;70170;47.856;10.956;2023-09-08T03:40:11;11.27;99.99
80779;SHT30;70170;47.856;10.956;2023-09-08T03:42:37;11.33;99.99
80779;SHT30;70170;47.856;10.956;2023-09-08T03:45:02;11.87;99.99
80779;SHT30;70170;47.856;10.956;2023-09-08T03:47:27;12.11;99.99
80779;SHT30;70170;47.856;10.956;2023-09-08T03:49:53;12.18;99.99
80779;SHT30;70170;47.856;10.956;2023-09-08T03:52:18;12.14;99.99
80779;SHT30;70170;47.856;10.956;2023-09-08T03:54:44;12.15;99.99
80779;SHT30;70170;47.856;10.956;2023-09-08T03:57:11;12.11;99.99
80779;SHT30;70170;47.856;10.956;2023-09-08T03:59:36;11.99;99.99
80779;SHT30;70170;47.856;10.956;2023-09-08T04:02:02;11.84;99.99
80779;SHT30;70170;47.856;10.956;2023-09-08T04:04:27;11.89;99.99
80779;SHT30;70170;47.856;10.956;2023-09-08T04:06:52;11.84;99.99
80779;SHT30;70170;47.856;10.956;2023-09-08T04:09:17;11.77;99.99
80779;SHT30;70170;47.856;10.956;2023-09-08T04:11:43;11.81;99.99
80779;SHT30;70170;47.856;10.956;2023-09-08T04:14:08;12.09;99.99
80779;SHT30;70170;47.856;10.956;2023-09-08T04:16:33;12.29;99.99
80779;SHT30;70170;47.856;10.956;2023-09-08T04:18:58;12.49;99.99
80779;SHT30;70170;47.856;10.956;2023-09-08T04:21:24;12.92;99.99
80779;SHT30;70170;47.856;10.956;2023-09-08T04:23:49;12.99;99.99
80779;SHT30;70170;47.856;10.956;2023-09-08T04:26:14;12.79;99.99
80779;SHT30;70170;47.856;10.956;2023-09-08T04:28:40;12.85;99.99
80779;SHT30;70170;47.856;10.956;2023-09-08T04:31:05;12.67;99.99
80779;SHT30;70170;47.856;10.956;2023-09-08T04:33:30;12.52;99.99
80779;SHT30;70170;47.856;10.956;2023-09-08T04:35:55;12.61;99.99
80779;SHT30;70170;47.856;10.956;2023-09-08T04:38:21;12.54;99.99
80779;SHT30;70170;47.856;10.956;2023-09-08T04:40:46;12.47;99.99
80779;SHT30;70170;47.856;10.956;2023-09-08T04:43:12;12.50;99.99
80779;SHT30;70170;47.856;10.956;2023-09-08T04:45:37;12.33;99.99
80779;SHT30;70170;47.856;10.956;2023-09-08T04:48:03;12.53;99.99
80779;SHT30;70170;47.856;10.956;2023-09-08T04:50:29;12.53;99.99
80779;SHT30;70170;47.856;10.956;2023-09-08T04:52:54;12.60;99.99
80779;SHT30;70170;47.856;10.956;2023-09-08T04:55:19;12.76;99.99
80779;SHT30;70170;47.856;10.956;2023-09-08T04:57:45;12.90;99.99
80779;SHT30;70170;47.856;10.956;2023-09-08T05:00:10;12.71;99.99
80779;SHT30;70170;47.856;10.956;2023-09-08T05:02:37;12.67;99.99
80779;SHT30;70170;47.856;10.956;2023-09-08T05:05:02;12.42;99.99
80779;SHT30;70170;47.856;10.956;2023-09-08T05:07:28;12.46;99.99
80779;SHT30;70170;47.856;10.956;2023-09-08T05:09:53;12.68;99.99
80779;SHT30;70170;47.856;10.956;2023-09-08T05:12:18;12.80;99.99
80779;SHT30;70170;47.856;10.956;2023-09-08T05:14:44;13.02;99.99
80779;SHT30;70170;47.856;10.956;2023-09-08T05:17:09;13.29;99.99
80779;SHT30;70170;47.856;10.956;2023-09-08T05:19:34;13.53;99.99
80779;SHT30;70170;47.856;10.956;2023-09-08T05:22:00;13.67;99.99
80779;SHT30;70170;47.856;10.956;2023-09-08T05:24:25;13.87;99.99
80779;SHT30;70170;47.856;10.956;2023-09-08T05:26:51;13.95;99.99
80779;SHT30;70170;47.856;10.956;2023-09-08T05:29:17;14.09;99.99
80779;SHT30;70170;47.856;10.956;2023-09-08T05:31:42;14.15;99.99
80779;SHT30;70170;47.856;10.956;2023-09-08T05:34:08;14.30;99.99
80779;SHT30;70170;47.856;10.956;2023-09-08T05:36:33;14.47;99.99
80779;SHT30;70170;47.856;10.956;2023-09-08T05:39:02;14.63;99.99
80779;SHT30;70170;47.856;10.956;2023-09-08T05:41:27;14.84;99.99
80779;SHT30;70170;47.856;10.956;2023-09-08T05:43:53;15.07;99.99
80779;SHT30;70170;47.856;10.956;2023-09-08T05:46:19;15.19;99.99
80779;SHT30;70170;47.856;10.956;2023-09-08T05:48:44;15.34;99.99
80779;SHT30;70170;47.856;10.956;2023-09-08T05:51:10;15.54;99.99
80779;SHT30;70170;47.856;10.956;2023-09-08T05:53:36;15.70;99.99
80779;SHT30;70170;47.856;10.956;2023-09-08T05:56:03;15.86;99.99
80779;SHT30;70170;47.856;10.956;2023-09-08T05:58:28;15.98;99.99
80779;SHT30;70170;47.856;10.956;2023-09-08T06:00:54;16.15;99.99
80779;SHT30;70170;47.856;10.956;2023-09-08T06:03:19;16.39;99.78
80779;SHT30;70170;47.856;10.956;2023-09-08T06:05:45;16.48;99.41
80779;SHT30;70170;47.856;10.956;2023-09-08T06:08:10;16.53;97.81
80779;SHT30;70170;47.856;10.956;2023-09-08T06:10:36;16.81;98.96
80779;SHT30;70170;47.856;10.956;2023-09-08T06:13:01;17.08;98.69
80779;SHT30;70170;47.856;10.956;2023-09-08T06:15:26;17.38;98.14
80779;SHT30;70170;47.856;10.956;2023-09-08T06:17:52;17.77;99.30
80779;SHT30;70170;47.856;10.956;2023-09-08T06:20:17;18.10;98.28
80779;SHT30;70170;47.856;10.956;2023-09-08T06:22:42;18.48;98.10
80779;SHT30;70170;47.856;10.956;2023-09-08T06:25:08;18.77;96.52
80779;SHT30;70170;47.856;10.956;2023-09-08T06:27:34;19.12;97.70
80779;SHT30;70170;47.856;10.956;2023-09-08T06:29:59;19.56;96.17
80779;SHT30;70170;47.856;10.956;2023-09-08T06:32:24;19.91;93.15
80779;SHT30;70170;47.856;10.956;2023-09-08T06:34:50;20.18;90.89
80779;SHT30;70170;47.856;10.956;2023-09-08T06:37:15;20.22;89.20
80779;SHT30;70170;47.856;10.956;2023-09-08T06:39:40;20.49;88.79
80779;SHT30;70170;47.856;10.956;2023-09-08T06:42:05;20.79;88.61
80779;SHT30;70170;47.856;10.956;2023-09-08T06:44:31;21.07;87.21
80779;SHT30;70170;47.856;10.956;2023-09-08T06:46:56;21.31;87.84
80779;SHT30;70170;47.856;10.956;2023-09-08T06:49:21;21.62;86.60
80779;SHT30;70170;47.856;10.956;2023-09-08T06:51:47;21.73;84.79
80779;SHT30;70170;47.856;10.956;2023-09-08T06:54:13;22.04;85.41
80779;SHT30;70170;47.856;10.956;2023-09-08T06:56:39;22.34;84.69
80779;SHT30;70170;47.856;10.956;2023-09-08T06:59:04;22.38;82.84
80779;SHT30;70170;47.856;10.956;2023-09-08T07:01:29;22.72;83.90
80779;SHT30;70170;47.856;10.956;2023-09-08T07:03:55;22.85;82.59
80779;SHT30;70170;47.856;10.956;2023-09-08T07:06:20;23.23;82.68
80779;SHT30;70170;47.856;10.956;2023-09-08T07:08:47;23.51;81.17
80779;SHT30;70170;47.856;10.956;2023-09-08T07:11:14;23.75;80.83
80779;SHT30;70170;47.856;10.956;2023-09-08T07:13:40;23.85;80.28
80779;SHT30;70170;47.856;10.956;2023-09-08T07:16:05;23.75;79.23
80779;SHT30;70170;47.856;10.956;2023-09-08T07:18:30;23.98;79.47
80779;SHT30;70170;47.856;10.956;2023-09-08T07:21:00;24.16;79.24
80779;SHT30;70170;47.856;10.956;2023-09-08T07:23:26;24.50;78.59
80779;SHT30;70170;47.856;10.956;2023-09-08T07:25:51;24.75;78.15
80779;SHT30;70170;47.856;10.956;2023-09-08T07:28:16;24.88;77.39
80779;SHT30;70170;47.856;10.956;2023-09-08T07:30:42;24.98;76.85
80779;SHT30;70170;47.856;10.956;2023-09-08T07:33:08;25.24;76.88
80779;SHT30;70170;47.856;10.956;2023-09-08T07:35:36;25.20;76.03
80779;SHT30;70170;47.856;10.956;2023-09-08T07:38:02;25.50;76.86
80779;SHT30;70170;47.856;10.956;2023-09-08T07:40:27;25.92;75.44
80779;SHT30;70170;47.856;10.956;2023-09-08T07:42:53;26.05;74.76
80779;SHT30;70170;47.856;10.956;2023-09-08T07:45:18;26.19;74.33
80779;SHT30;70170;47.856;10.956;2023-09-08T07:47:43;26.20;74.51
80779;SHT30;70170;47.856;10.956;2023-09-08T07:50:18;26.23;72.87
80779;SHT30;70170;47.856;10.956;2023-09-08T07:52:45;26.18;73.75
80779;SHT30;70170;47.856;10.956;2023-09-08T07:55:10;26.01;74.09
80779;SHT30;70170;47.856;10.956;2023-09-08T07:57:36;26.02;73.85
80779;SHT30;70170;47.856;10.956;2023-09-08T08:00:02;26.30;73.65
80779;SHT30;70170;47.856;10.956;2023-09-08T08:02:27;25.96;74.20
80779;SHT30;70170;47.856;10.956;2023-09-08T08:04:52;26.16;73.90
80779;SHT30;70170;47.856;10.956;2023-09-08T08:07:17;26.03;74.06
80779;SHT30;70170;47.856;10.956;2023-09-08T08:09:43;26.10;74.19
80779;SHT30;70170;47.856;10.956;2023-09-08T08:12:08;25.91;75.09
80779;SHT30;70170;47.856;10.956;2023-09-08T08:14:33;26.18;74.57
80779;SHT30;70170;47.856;10.956;2023-09-08T08:16:59;26.08;74.34
80779;SHT30;70170;47.856;10.956;2023-09-08T08:19:24;26.12;74.66
80779;SHT30;70170;47.856;10.956;2023-09-08T08:21:49;25.82;74.96
80779;SHT30;70170;47.856;10.956;2023-09-08T08:24:15;26.33;74.26
80779;SHT30;70170;47.856;10.956;2023-09-08T08:26:41;26.30;74.15
80779;SHT30;70170;47.856;10.956;2023-09-08T08:29:06;25.99;74.22
80779;SHT30;70170;47.856;10.956;2023-09-08T08:31:31;26.02;74.54
80779;SHT30;70170;47.856;10.956;2023-09-08T08:33:58;26.01;74.62
80779;SHT30;70170;47.856;10.956;2023-09-08T08:36:23;26.08;74.34
80779;SHT30;70170;47.856;10.956;2023-09-08T08:38:48;25.91;75.63
80779;SHT30;70170;47.856;10.956;2023-09-08T08:41:14;26.23;74.50
80779;SHT30;70170;47.856;10.956;2023-09-08T08:43:40;26.10;74.46
80779;SHT30;70170;47.856;10.956;2023-09-08T08:46:05;26.37;73.84
80779;SHT30;70170;47.856;10.956;2023-09-08T08:48:32;26.40;73.76
80779;SHT30;70170;47.856;10.956;2023-09-08T08:50:59;26.90;73.24
80779;SHT30;70170;47.856;10.956;2023-09-08T08:53:25;27.09;72.13
80779;SHT30;70170;47.856;10.956;2023-09-08T08:55:54;27.16;71.44
80779;SHT30;70170;47.856;10.956;2023-09-08T08:58:20;26.96;72.74
80779;SHT30;70170;47.856;10.956;2023-09-08T09:00:51;27.43;71.29
80779;SHT30;70170;47.856;10.956;2023-09-08T09:03:17;27.36;70.70
80779;SHT30;70170;47.856;10.956;2023-09-08T09:05:43;27.25;70.87
80779;SHT30;70170;47.856;10.956;2023-09-08T09:08:10;27.37;71.39
80779;SHT30;70170;47.856;10.956;2023-09-08T09:10:36;27.39;71.82
80779;SHT30;70170;47.856;10.956;2023-09-08T09:13:02;27.82;70.53
80779;SHT30;70170;47.856;10.956;2023-09-08T09:15:28;27.76;70.41
80779;SHT30;70170;47.856;10.956;2023-09-08T09:18:04;28.16;69.96
80779;SHT30;70170;47.856;10.956;2023-09-08T09:20:29;27.82;70.86
80779;SHT30;70170;47.856;10.956;2023-09-08T09:22:55;27.56;71.18
80779;SHT30;70170;47.856;10.956;2023-09-08T09:25:24;27.51;71.42
80779;SHT30;70170;47.856;10.956;2023-09-08T09:27:55;27.54;71.70
80779;SHT30;70170;47.856;10.956;2023-09-08T09:30:21;27.49;71.81
80779;SHT30;70170;47.856;10.956;2023-09-08T09:32:46;27.82;71.01
80779;SHT30;70170;47.856;10.956;2023-09-08T09:35:15;28.20;70.10
80779;SHT30;70170;47.856;10.956;2023-09-08T09:37:41;28.49;68.95
80779;SHT30;70170;47.856;10.956;2023-09-08T09:40:07;27.78;70.64
80779;SHT30;70170;47.856;10.956;2023-09-08T09:42:33;27.87;70.79
80779;SHT30;70170;47.856;10.956;2023-09-08T09:45:00;28.18;70.32
80779;SHT30;70170;47.856;10.956;2023-09-08T09:47:26;28.71;69.29
80779;SHT30;70170;47.856;10.956;2023-09-08T09:49:51;29.60;66.87
80779;SHT30;70170;47.856;10.956;2023-09-08T09:52:23;28.60;68.40
80779;SHT30;70170;47.856;10.956;2023-09-08T09:54:52;28.49;69.23
80779;SHT30;70170;47.856;10.956;2023-09-08T09:57:20;28.26;70.42
80779;SHT30;70170;47.856;10.956;2023-09-08T09:59:46;27.95;70.75
80779;SHT30;70170;47.856;10.956;2023-09-08T10:02:14;27.49;72.23
80779;SHT30;70170;47.856;10.956;2023-09-08T10:04:42;27.36;71.87
80779;SHT30;70170;47.856;10.956;2023-09-08T10:07:08;27.45;71.64
80779;SHT30;70170;47.856;10.956;2023-09-08T10:09:36;27.42;71.72
80779;SHT30;70170;47.856;10.956;2023-09-08T10:12:04;28.31;70.15
80779;SHT30;70170;47.856;10.956;2023-09-08T10:14:30;28.67;68.99
80779;SHT30;70170;47.856;10.956;2023-09-08T10:16:59;27.84;70.40
80779;SHT30;70170;47.856;10.956;2023-09-08T10:19:25;27.68;71.67
80779;SHT30;70170;47.856;10.956;2023-09-08T10:21:51;27.49;72.20
80779;SHT30;70170;47.856;10.956;2023-09-08T10:24:25;27.63;71.80
80779;SHT30;70170;47.856;10.956;2023-09-08T10:26:58;27.84;71.64
80779;SHT30;70170;47.856;10.956;2023-09-08T10:29:26;28.45;69.29
80779;SHT30;70170;47.856;10.956;2023-09-08T10:31:53;28.05;70.13
80779;SHT30;70170;47.856;10.956;2023-09-08T10:34:20;28.06;70.70
80779;SHT30;70170;47.856;10.956;2023-09-08T10:36:46;28.32;71.42
80779;SHT30;70170;47.856;10.956;2023-09-08T10:39:31;28.63;69.72
80779;SHT30;70170;47.856;10.956;2023-09-08T10:47:10;29.20;68.12
80779;SHT30;70170;47.856;10.956;2023-09-08T10:49:36;29.50;67.74
80779;SHT30;70170;47.856;10.956;2023-09-08T10:52:08;28.95;68.30
80779;SHT30;70170;47.856;10.956;2023-09-08T10:54:44;28.35;70.16
80779;SHT30;70170;47.856;10.956;2023-09-08T10:57:14;28.47;69.57
80779;SHT30;70170;47.856;10.956;2023-09-08T10:59:44;28.47;69.77
80779;SHT30;70170;47.856;10.956;2023-09-08T11:02:42;28.28;70.11
80779;SHT30;70170;47.856;10.956;2023-09-08T11:05:14;28.32;70.03
80779;SHT30;70170;47.856;10.956;2023-09-08T11:07:44;27.76;71.01
80779;SHT30;70170;47.856;10.956;2023-09-08T11:10:10;27.68;71.51
80779;SHT30;70170;47.856;10.956;2023-09-08T11:12:36;27.51;72.64
80779;SHT30;70170;47.856;10.956;2023-09-08T11:15:04;27.63;72.50
80779;SHT30;70170;47.856;10.956;2023-09-08T11:17:31;27.87;71.35
80779;SHT30;70170;47.856;10.956;2023-09-08T11:19:57;27.81;71.65
80779;SHT30;70170;47.856;10.956;2023-09-08T11:22:25;27.65;71.11
80779;SHT30;70170;47.856;10.956;2023-09-08T11:24:55;27.50;71.87
80779;SHT30;70170;47.856;10.956;2023-09-08T11:27:22;27.35;72.41
80779;SHT30;70170;47.856;10.956;2023-09-08T11:29:48;27.09;73.13
80779;SHT30;70170;47.856;10.956;2023-09-08T11:32:14;27.30;72.58
80779;SHT30;70170;47.856;10.956;2023-09-08T11:34:39;27.09;73.16
80779;SHT30;70170;47.856;10.956;2023-09-08T11:37:13;27.74;73.35
80779;SHT30;70170;47.856;10.956;2023-09-08T11:39:40;27.16;72.76
80779;SHT30;70170;47.856;10.956;2023-09-08T11:42:07;27.29;72.96
80779;SHT30;70170;47.856;10.956;2023-09-08T11:44:34;27.16;73.04
80779;SHT30;70170;47.856;10.956;2023-09-08T11:47:01;27.03;72.82
80779;SHT30;70170;47.856;10.956;2023-09-08T11:49:26;28.25;70.76
80779;SHT30;70170;47.856;10.956;2023-09-08T11:51:51;28.59;69.77
80779;SHT30;70170;47.856;10.956;2023-09-08T11:54:17;28.77;68.20
80779;SHT30;70170;47.856;10.956;2023-09-08T11:56:43;29.25;67.81
80779;SHT30;70170;47.856;10.956;2023-09-08T11:59:08;28.46;69.23
80779;SHT30;70170;47.856;10.956;2023-09-08T12:01:34;27.49;71.20
80779;SHT30;70170;47.856;10.956;2023-09-08T12:03:59;27.05;72.65
80779;SHT30;70170;47.856;10.956;2023-09-08T12:06:25;27.25;72.07
80779;SHT30;70170;47.856;10.956;2023-09-08T12:08:53;28.00;70.71
80779;SHT30;70170;47.856;10.956;2023-09-08T12:11:18;28.13;69.99
80779;SHT30;70170;47.856;10.956;2023-09-08T12:13:43;28.39;68.67
80779;SHT30;70170;47.856;10.956;2023-09-08T12:16:19;28.84;67.93
80779;SHT30;70170;47.856;10.956;2023-09-08T12:18:45;29.08;68.69
80779;SHT30;70170;47.856;10.956;2023-09-08T12:21:11;28.32;69.31
80779;SHT30;70170;47.856;10.956;2023-09-08T12:23:50;27.70;70.30
80779;SHT30;70170;47.856;10.956;2023-09-08T12:26:16;28.01;70.00
80779;SHT30;70170;47.856;10.956;2023-09-08T12:28:41;28.94;67.48
80779;SHT30;70170;47.856;10.956;2023-09-08T12:31:08;29.92;66.83
80779;SHT30;70170;47.856;10.956;2023-09-08T12:33:33;30.47;64.81
80779;SHT30;70170;47.856;10.956;2023-09-08T12:35:59;31.19;62.66
80779;SHT30;70170;47.856;10.956;2023-09-08T12:38:30;30.88;63.08
80779;SHT30;70170;47.856;10.956;2023-09-08T12:40:56;30.73;63.23
80779;SHT30;70170;47.856;10.956;2023-09-08T12:43:21;31.21;61.68
80779;SHT30;70170;47.856;10.956;2023-09-08T12:45:47;31.74;61.42
80779;SHT30;70170;47.856;10.956;2023-09-08T12:48:12;32.10;60.01
80779;SHT30;70170;47.856;10.956;2023-09-08T12:50:37;32.03;60.57
80779;SHT30;70170;47.856;10.956;2023-09-08T12:53:03;30.33;63.39
80779;SHT30;70170;47.856;10.956;2023-09-08T12:55:28;29.96;64.67
80779;SHT30;70170;47.856;10.956;2023-09-08T12:57:53;30.33;64.39
80779;SHT30;70170;47.856;10.956;2023-09-08T13:00:22;30.90;63.22
80779;SHT30;70170;47.856;10.956;2023-09-08T13:02:48;31.00;62.14
80779;SHT30;70170;47.856;10.956;2023-09-08T13:05:14;30.55;63.05
80779;SHT30;70170;47.856;10.956;2023-09-08T13:07:39;29.35;66.03
80779;SHT30;70170;47.856;10.956;2023-09-08T13:10:06;28.53;67.80
80779;SHT30;70170;47.856;10.956;2023-09-08T13:12:31;28.68;67.48
80779;SHT30;70170;47.856;10.956;2023-09-08T13:14:56;29.70;65.53
80779;SHT30;70170;47.856;10.956;2023-09-08T13:17:22;30.52;64.67
80779;SHT30;70170;47.856;10.956;2023-09-08T13:19:47;30.72;62.95
80779;SHT30;70170;47.856;10.956;2023-09-08T13:22:13;31.11;61.72
80779;SHT30;70170;47.856;10.956;2023-09-08T13:24:39;31.38;60.81
80779;SHT30;70170;47.856;10.956;2023-09-08T13:27:07;31.43;60.60
80779;SHT30;70170;47.856;10.956;2023-09-08T13:29:32;31.18;60.56
80779;SHT30;70170;47.856;10.956;2023-09-08T13:31:57;31.59;59.74
80779;SHT30;70170;47.856;10.956;2023-09-08T13:34:23;31.72;61.15
80779;SHT30;70170;47.856;10.956;2023-09-08T13:36:49;31.63;59.34
80779;SHT30;70170;47.856;10.956;2023-09-08T13:39:14;31.94;59.48
80779;SHT30;70170;47.856;10.956;2023-09-08T13:41:53;31.67;60.38
80779;SHT30;70170;47.856;10.956;2023-09-08T13:44:19;31.58;60.21
80779;SHT30;70170;47.856;10.956;2023-09-08T13:46:49;31.39;60.40
80779;SHT30;70170;47.856;10.956;2023-09-08T13:49:16;31.90;59.42
80779;SHT30;70170;47.856;10.956;2023-09-08T13:51:42;31.91;60.35
80779;SHT30;70170;47.856;10.956;2023-09-08T13:54:08;31.19;62.96
80779;SHT30;70170;47.856;10.956;2023-09-08T13:56:33;32.35;59.42
80779;SHT30;70170;47.856;10.956;2023-09-08T13:58:59;32.37;59.36
80779;SHT30;70170;47.856;10.956;2023-09-08T14:01:25;31.86;60.81
80779;SHT30;70170;47.856;10.956;2023-09-08T14:03:53;30.22;64.34
80779;SHT30;70170;47.856;10.956;2023-09-08T14:06:18;30.33;64.06
80779;SHT30;70170;47.856;10.956;2023-09-08T14:08:44;30.22;65.44
80779;SHT30;70170;47.856;10.956;2023-09-08T14:11:09;29.07;66.18
80779;SHT30;70170;47.856;10.956;2023-09-08T14:13:34;27.25;70.73
80779;SHT30;70170;47.856;10.956;2023-09-08T14:16:00;27.01;71.83
80779;SHT30;70170;47.856;10.956;2023-09-08T14:18:25;26.71;73.25
80779;SHT30;70170;47.856;10.956;2023-09-08T14:20:50;27.05;73.26
80779;SHT30;70170;47.856;10.956;2023-09-08T14:23:16;28.06;70.87
80779;SHT30;70170;47.856;10.956;2023-09-08T14:25:41;28.29;70.68
80779;SHT30;70170;47.856;10.956;2023-09-08T14:28:06;27.81;71.50
80779;SHT30;70170;47.856;10.956;2023-09-08T14:30:32;28.54;67.63
80779;SHT30;70170;47.856;10.956;2023-09-08T14:32:57;27.46;70.63
80779;SHT30;70170;47.856;10.956;2023-09-08T14:35:22;26.99;71.56
80779;SHT30;70170;47.856;10.956;2023-09-08T14:37:48;26.63;73.86
80779;SHT30;70170;47.856;10.956;2023-09-08T14:40:14;26.30;74.26
80779;SHT30;70170;47.856;10.956;2023-09-08T14:42:39;25.82;74.67
80779;SHT30;70170;47.856;10.956;2023-09-08T14:45:05;26.03;75.44
80779;SHT30;70170;47.856;10.956;2023-09-08T14:47:31;27.28;71.32
80779;SHT30;70170;47.856;10.956;2023-09-08T14:49:57;28.04;69.96
80779;SHT30;70170;47.856;10.956;2023-09-08T14:52:22;27.35;72.27
80779;SHT30;70170;47.856;10.956;2023-09-08T14:54:48;26.68;72.60
80779;SHT30;70170;47.856;10.956;2023-09-08T14:57:14;26.61;72.42
80779;SHT30;70170;47.856;10.956;2023-09-08T14:59:40;26.92;71.71
80779;SHT30;70170;47.856;10.956;2023-09-08T15:02:07;27.85;69.54
80779;SHT30;70170;47.856;10.956;2023-09-08T15:04:33;28.53;67.91
80779;SHT30;70170;47.856;10.956;2023-09-08T15:06:58;28.88;67.84
80779;SHT30;70170;47.856;10.956;2023-09-08T15:09:23;28.68;66.34
80779;SHT30;70170;47.856;10.956;2023-09-08T15:11:49;28.15;67.90
80779;SHT30;70170;47.856;10.956;2023-09-08T15:14:14;28.52;66.77
80779;SHT30;70170;47.856;10.956;2023-09-08T15:16:39;28.60;65.95